»·PEaware :: SWA468 KSLC-KRNO

SWA468 :: KSLC-KRNO

FLIGHT INFORMATION

Flight Status: Arrived
Operator:
Southwest Airlines
More flights by this operator :: More flights under this callsign
Pilot: Steve F. (26981)
Aircraft: BOEING 737-900
(B739)
More flights by this aircraft type
Origin: KSLC Salt Lake City Intl
United States
Destination: KRNO Reno/Tahoe Intl
United States
More flights between these airports :: More routes between these airports
Route: DEZRT2 BAM MYBAD MYBAD3
File this flight plan on PilotEdge
Remarks:
Altitude:
(Current/Filed)
28,000ft
Speed:
(Current/Filed)
430kts
Departed: 07-Jul-23 01:39 PM
Arrived: 07-Jul-23 02:41 PM
Distance/Time
Traveled:
366nm/1:02
Distance/Time
To Go:
Arrived

Flight Plot

Page will automatically refresh every two minutes.

Flight plan parsing failed; only flown route is shown


Map Options




Map Legend


Flown Route
Filed Route
Departure Airport
Arrival Airport
Navaid (VOR, NDB)
Fix

Horizontal Profiles

Position Reports

Time Latitude Longitude Heading Altitude Ground
Speed
07-Jul-23 13:16 40.788854 -111.977948 264 4235ft 0kts
07-Jul-23 13:17 40.788854 -111.977948 264 4235ft 0kts
07-Jul-23 13:18 40.788854 -111.977948 264 4235ft 0kts
07-Jul-23 13:19 40.788854 -111.977948 264 4235ft 0kts
07-Jul-23 13:20 40.788854 -111.977948 264 4235ft 0kts
07-Jul-23 13:21 40.788854 -111.977948 264 4235ft 0kts
07-Jul-23 13:22 40.788854 -111.977948 264 4235ft 0kts
07-Jul-23 13:23 40.788854 -111.977948 264 4235ft 0kts
07-Jul-23 13:24 40.788854 -111.977948 264 4235ft 0kts
07-Jul-23 13:25 40.788854 -111.977948 264 4235ft 0kts
07-Jul-23 13:26 40.788854 -111.977948 264 4235ft 0kts
07-Jul-23 13:27 40.788854 -111.977948 264 4235ft 0kts
07-Jul-23 13:28 40.788854 -111.977948 264 4235ft 0kts
07-Jul-23 13:29 40.788854 -111.977948 264 4235ft 0kts
07-Jul-23 13:30 40.788854 -111.977948 264 4235ft 0kts
07-Jul-23 13:31 40.788938 -111.977276 227 4235ft 1kts
07-Jul-23 13:32 40.788973 -111.977231 220 4235ft 0kts
07-Jul-23 13:33 40.788973 -111.977231 220 4235ft 0kts
07-Jul-23 13:34 40.789116 -111.977063 359 4235ft 8kts
07-Jul-23 13:35 40.795488 -111.977804 355 4235ft 30kts
07-Jul-23 13:36 40.803889 -111.978743 355 4235ft 26kts
07-Jul-23 13:37 40.807523 -111.978318 84 4235ft 5kts
07-Jul-23 13:38 40.799720 -111.976000 174 4235ft 111kts
07-Jul-23 13:39 40.749371 -111.977347 215 5973ft 215kts
07-Jul-23 13:40 40.756329 -112.056713 303 7483ft 290kts
07-Jul-23 13:41 40.781500 -112.129716 290 10090ft 279kts
07-Jul-23 13:42 40.808745 -112.219869 290 12262ft 312kts
07-Jul-23 13:43 40.843547 -112.338965 289 13322ft 381kts
07-Jul-23 13:44 40.868794 -112.477063 268 15656ft 393kts
07-Jul-23 13:45 40.858991 -112.622647 263 18037ft 403kts
07-Jul-23 13:46 40.846774 -112.771611 263 20169ft 411kts
07-Jul-23 13:47 40.840703 -112.923990 270 22042ft 421kts
07-Jul-23 13:48 40.841975 -113.079829 269 23627ft 428kts
07-Jul-23 13:49 40.842075 -113.238262 269 25047ft 433kts
07-Jul-23 13:50 40.842582 -113.397702 269 26235ft 437kts
07-Jul-23 13:51 40.842871 -113.557478 269 27727ft 430kts
07-Jul-23 13:52 40.842211 -113.716212 268 27949ft 431kts
07-Jul-23 13:53 40.841609 -113.868955 268 27950ft 431kts
07-Jul-23 13:54 40.840266 -114.026910 268 27949ft 431kts
07-Jul-23 13:55 40.838801 -114.184845 268 27952ft 431kts
07-Jul-23 13:56 40.837819 -114.343246 269 27954ft 432kts
07-Jul-23 13:57 40.836611 -114.501610 268 27958ft 432kts
07-Jul-23 13:58 40.834520 -114.660066 268 27965ft 431kts
07-Jul-23 13:59 40.826833 -114.817833 261 27970ft 431kts
07-Jul-23 14:00 40.807852 -114.974321 261 27972ft 431kts
07-Jul-23 14:01 40.790447 -115.130679 261 27976ft 431kts
07-Jul-23 14:02 40.772056 -115.287305 261 27977ft 431kts
07-Jul-23 14:03 40.753626 -115.443324 260 27972ft 431kts
07-Jul-23 14:04 40.734788 -115.599400 260 27970ft 431kts
07-Jul-23 14:05 40.715760 -115.754989 260 27970ft 430kts
07-Jul-23 14:06 40.696981 -115.910962 261 27969ft 430kts
07-Jul-23 14:07 40.678258 -116.065848 260 27967ft 429kts
07-Jul-23 14:08 40.658969 -116.221369 260 27966ft 429kts
07-Jul-23 14:09 40.639423 -116.376759 260 27961ft 430kts
07-Jul-23 14:10 40.619867 -116.532098 260 27957ft 430kts
07-Jul-23 14:11 40.600069 -116.686904 260 27952ft 430kts
07-Jul-23 14:12 40.579601 -116.842254 260 27951ft 430kts
07-Jul-23 14:13 40.559744 -116.997664 261 27950ft 430kts
07-Jul-23 14:14 40.541158 -117.152520 261 27950ft 430kts
07-Jul-23 14:15 40.522108 -117.307489 261 27944ft 429kts
07-Jul-23 14:16 40.503533 -117.462204 261 27940ft 430kts
07-Jul-23 14:17 40.484533 -117.617363 261 27935ft 430kts
07-Jul-23 14:18 40.465149 -117.771925 261 27931ft 429kts
07-Jul-23 14:19 40.445645 -117.926537 261 27921ft 429kts
07-Jul-23 14:20 40.426265 -118.081191 261 27572ft 431kts
07-Jul-23 14:21 40.405835 -118.236577 260 25655ft 437kts
07-Jul-23 14:22 40.376838 -118.390278 245 23651ft 433kts
07-Jul-23 14:23 40.316873 -118.524718 239 21653ft 423kts
07-Jul-23 14:24 40.257447 -118.656198 240 19652ft 416kts
07-Jul-23 14:25 40.205415 -118.790440 241 17647ft 409kts
07-Jul-23 14:26 40.154373 -118.922058 241 15647ft 402kts
07-Jul-23 14:27 40.103337 -119.050653 241 14024ft 396kts
07-Jul-23 14:28 40.052958 -119.177250 241 13079ft 392kts
07-Jul-23 14:29 40.002706 -119.303810 241 13073ft 392kts
07-Jul-23 14:30 39.954227 -119.424471 241 13083ft 341kts
07-Jul-23 14:31 39.914278 -119.523861 241 13011ft 288kts
07-Jul-23 14:32 39.869472 -119.607177 229 11744ft 278kts
07-Jul-23 14:33 39.819417 -119.682311 228 10173ft 273kts
07-Jul-23 14:34 39.770259 -119.754756 223 9170ft 253kts
07-Jul-23 14:35 39.707684 -119.769154 179 8335ft 223kts
07-Jul-23 14:36 39.647017 -119.768888 182 7157ft 208kts
07-Jul-23 14:37 39.592586 -119.769099 182 5974ft 179kts
07-Jul-23 14:38 39.546242 -119.769114 183 5054ft 159kts
07-Jul-23 14:39 39.501872 -119.769263 179 4423ft 114kts
07-Jul-23 14:40 39.492644 -119.770856 250 4423ft 10kts
07-Jul-23 14:41 39.496978 -119.771518 0 4423ft 27kts
07-Jul-23 14:42 39.504780 -119.771481 359 4423ft 21kts
07-Jul-23 14:44 39.505908 -119.772959 267 4423ft 1kts
07-Jul-23 14:45 39.505292 -119.773746 180 4423ft 0kts
07-Jul-23 14:46 39.505283 -119.773746 180 4423ft 0kts

Navigation Log

Ident Type
Flight plan parsing failed, navigation log unavailable